Minerva, Kentucky
Current Conditions -  °F | °C
As of 9:15 PM on Thursday 18 Dec 2014 (Local Time) from KFGX Reporting Station
Overcast Overcast  
Wind Chill: 28°   Ceiling: 9000
Heat Index: 28°   Visibility: 10mi
Dew Point: 22°   Wind: 3mph
Humidity: 78%   Direction: 310°NW
Pressure: 30.23"   Gusts: NA
Location:  38.71°N, 83.92°W
Report Text: KFGX 190215Z AUTO 31003KT 10SM SCT060 OVC090 M02/M05 A3023 RMK AO2 T10201053
Loading
Personal Weather Stations






























Interactive Weather Map New forecast layout! Learn more

10-Day Weather Forecast

Advertisements
Track Severe Weather on mobile